Time;durP1;ratioP1;P1;durP2;ratioP2;P2;SDS_P1;SDS_P2;PMS_P1;PMS_P2;Temp;Humidity;BMP_temperature;BMP_pressure;BME280_temperature;BME280_humidity;BME280_pressure;Samples;Min_cycle;Max_cycle;Signal;HPM_P1;HPM_P2
2021/11/11 00:00:23;;;;;;;34.27;16.90;;;;;;;-0.87;89.25;99141.11;1722235;82;21040;-77
2021/11/11 00:02:54;;;;;;;31.33;15.93;;;;;;;-0.89;89.70;99137.55;1719276;83;21490;-77
2021/11/11 00:05:21;;;;;;;31.27;15.65;;;;;;;-1.00;89.12;99136.75;1719317;83;21040;-77
2021/11/11 00:07:48;;;;;;;31.82;16.05;;;;;;;-0.97;89.62;99133.38;1690765;84;21048;-77
2021/11/11 00:10:16;;;;;;;29.12;16.12;;;;;;;-0.98;89.96;99133.81;1690726;85;21033;-77
2021/11/11 00:12:45;;;;;;;33.00;16.97;;;;;;;-0.94;90.27;99129.19;1690781;84;21024;-77
2021/11/11 00:15:15;;;;;;;28.95;15.45;;;;;;;-0.94;89.94;99132.19;1690714;85;21067;-77
2021/11/11 00:17:43;;;;;;;32.63;16.80;;;;;;;-1.00;89.46;99126.78;1713088;83;21052;-77
2021/11/11 00:20:13;;;;;;;33.45;16.48;;;;;;;-1.07;89.65;99134.78;1713353;83;21103;-77
2021/11/11 00:22:42;;;;;;;29.55;16.23;;;;;;;-1.15;89.91;99131.91;1718912;83;20978;-77
2021/11/11 00:25:11;;;;;;;33.85;15.85;;;;;;;-1.25;89.75;99129.38;1716327;82;21076;-77
2021/11/11 00:27:39;;;;;;;30.12;15.85;;;;;;;-1.26;89.61;99120.21;1717027;82;21092;-77
2021/11/11 00:30:11;;;;;;;29.80;15.88;;;;;;;-1.29;89.36;99118.38;1713755;83;21069;-76
2021/11/11 00:32:39;;;;;;;30.57;15.45;;;;;;;-1.33;89.90;99123.03;1713775;84;21100;-77
2021/11/11 00:35:10;;;;;;;33.85;16.93;;;;;;;-1.33;90.08;99115.23;1713504;84;21012;-77
2021/11/11 00:37:37;;;;;;;35.00;16.37;;;;;;;-1.30;89.69;99114.02;1712974;83;20997;-77
2021/11/11 00:40:06;;;;;;;31.10;15.23;;;;;;;-1.35;89.51;99109.97;1714959;83;20966;-77
2021/11/11 00:42:33;;;;;;;37.10;16.02;;;;;;;-1.35;89.46;99110.37;1718714;82;21008;-77
2021/11/11 00:45:01;;;;;;;34.43;16.27;;;;;;;-1.31;89.61;99117.45;1717915;82;21029;-77
2021/11/11 00:47:27;;;;;;;34.55;16.15;;;;;;;-1.28;90.08;99115.38;1717852;83;21453;-77
2021/11/11 00:49:54;;;;;;;40.83;17.37;;;;;;;-1.26;89.35;99109.80;1717862;83;21010;-77
2021/11/11 00:52:20;;;;;;;28.32;14.68;;;;;;;-1.29;89.17;99101.48;1716129;83;21036;-77
2021/11/11 00:54:48;;;;;;;27.40;14.68;;;;;;;-1.32;89.24;99106.59;1712334;84;21000;-77
2021/11/11 00:57:22;;;;;;;34.53;16.40;;;;;;;-1.31;89.00;99110.95;1707870;84;21049;-76
2021/11/11 00:59:49;;;;;;;32.88;15.10;;;;;;;-1.34;89.04;99105.23;1708964;84;21024;-76
2021/11/11 01:02:15;;;;;;;33.05;16.73;;;;;;;-1.35;89.08;99112.56;1708816;84;21333;-76
2021/11/11 01:04:42;;;;;;;31.90;15.43;;;;;;;-1.30;88.99;99111.42;1710926;83;21029;-76
2021/11/11 01:07:10;;;;;;;33.53;17.12;;;;;;;-1.31;89.16;99117.86;1713713;83;21084;-76
2021/11/11 01:09:38;;;;;;;32.75;14.30;;;;;;;-1.31;88.93;99107.05;1715770;83;21028;-76
2021/11/11 01:12:08;;;;;;;31.73;14.73;;;;;;;-1.33;88.68;99110.89;1718707;83;21013;-75
2021/11/11 01:14:35;;;;;;;34.98;16.75;;;;;;;-1.35;88.96;99109.97;1720282;83;20981;-75
2021/11/11 01:17:04;;;;;;;31.65;16.62;;;;;;;-1.34;88.92;99110.83;1718523;83;20969;-75
2021/11/11 01:19:30;;;;;;;33.67;16.80;;;;;;;-1.35;88.75;99105.16;1716585;83;21012;-76
2021/11/11 01:21:57;;;;;;;31.80;16.48;;;;;;;-1.39;88.66;99101.58;1716607;84;21020;-76
2021/11/11 01:24:24;;;;;;;33.73;17.45;;;;;;;-1.37;88.46;99106.84;1715670;84;20971;-76
2021/11/11 01:26:51;;;;;;;31.10;15.75;;;;;;;-1.40;88.48;99104.12;1713541;84;20984;-76
2021/11/11 01:29:18;;;;;;;27.55;15.90;;;;;;;-1.44;88.32;99109.63;1715985;84;20991;-75
2021/11/11 01:31:45;;;;;;;25.17;14.07;;;;;;;-1.44;88.33;99108.73;1715412;84;21036;-76
2021/11/11 01:34:12;;;;;;;26.40;14.05;;;;;;;-1.47;88.50;99105.20;1676675;85;20988;-75
2021/11/11 01:36:38;;;;;;;24.50;14.87;;;;;;;-1.47;88.21;99110.41;1693971;83;21020;-75
2021/11/11 01:39:07;;;;;;;26.10;14.25;;;;;;;-1.50;88.13;99106.81;1719258;83;20984;-75
2021/11/11 01:41:36;;;;;;;25.43;13.60;;;;;;;-1.54;88.12;99103.19;1719345;83;20981;-75
2021/11/11 01:44:03;;;;;;;23.50;13.32;;;;;;;-1.56;88.05;99103.96;1720899;83;21006;-76
2021/11/11 01:46:31;;;;;;;28.35;14.60;;;;;;;-1.63;88.12;99106.34;1719678;83;21459;-75
2021/11/11 01:48:58;;;;;;;26.15;13.93;;;;;;;-1.64;88.17;99107.58;1719445;83;20990;-75
2021/11/11 01:51:29;;;;;;;26.73;13.18;;;;;;;-1.66;87.97;99111.41;1719364;83;21057;-76
2021/11/11 01:54:00;;;;;;;28.55;16.10;;;;;;;-1.69;88.17;99115.22;1714527;82;21001;-75
2021/11/11 01:56:27;;;;;;;30.43;14.38;;;;;;;-1.69;88.47;99104.82;1691204;85;21008;-75
2021/11/11 01:58:55;;;;;;;25.60;13.62;;;;;;;-1.67;88.50;99102.28;1712823;82;21012;-75
2021/11/11 02:01:23;;;;;;;26.62;14.15;;;;;;;-1.67;88.24;99101.85;1720010;82;21070;-76
2021/11/11 02:03:53;;;;;;;27.20;13.40;;;;;;;-1.64;88.11;99094.58;1714386;83;21005;-76
2021/11/11 02:06:23;;;;;;;26.23;14.00;;;;;;;-1.71;87.92;99098.66;1712632;83;21045;-75
2021/11/11 02:08:57;;;;;;;28.50;14.53;;;;;;;-1.73;88.07;99100.33;1715069;83;21008;-76
2021/11/11 02:11:26;;;;;;;24.12;13.25;;;;;;;-1.77;87.60;99101.03;1718952;82;21454;-76
2021/11/11 02:13:54;;;;;;;25.75;14.65;;;;;;;-1.86;87.53;99102.45;1719497;83;21017;-76
2021/11/11 02:16:21;;;;;;;26.40;13.45;;;;;;;-1.96;87.28;99102.92;1714278;82;21410;-75
2021/11/11 02:18:48;;;;;;;27.87;14.50;;;;;;;-2.00;87.54;99112.72;1713721;83;20985;-75
2021/11/11 02:21:16;;;;;;;28.15;14.47;;;;;;;-2.05;87.45;99096.97;1715875;83;21081;-76
2021/11/11 02:23:57;;;;;;;28.25;15.15;;;;;;;-2.09;87.33;99104.56;1717399;83;21434;-75
2021/11/11 02:26:38;;;;;;;26.60;13.78;;;;;;;-2.18;87.50;99097.31;1699661;83;21040;-76
2021/11/11 02:29:07;;;;;;;26.52;13.60;;;;;;;-2.19;87.54;99094.24;1718304;83;21012;-75
2021/11/11 02:31:34;;;;;;;25.32;14.03;;;;;;;-2.20;87.47;99098.97;1718377;83;21002;-75
2021/11/11 02:34:00;;;;;;;22.20;13.18;;;;;;;-2.24;87.67;99098.38;1710396;82;21485;-76
2021/11/11 02:36:35;;;;;;;23.83;13.45;;;;;;;-2.25;87.71;99096.17;1707408;84;21457;-75
2021/11/11 02:39:02;;;;;;;25.50;14.05;;;;;;;-2.20;87.71;99097.67;1719541;83;20946;-76
2021/11/11 02:41:29;;;;;;;24.45;13.10;;;;;;;-2.25;87.57;99096.17;1719484;83;21073;-76
2021/11/11 02:43:55;;;;;;;23.52;13.30;;;;;;;-2.27;87.50;99091.34;1719671;82;20981;-76
2021/11/11 02:46:26;;;;;;;24.27;13.88;;;;;;;-2.28;87.76;99089.58;1700437;83;21049;-76
2021/11/11 02:48:53;;;;;;;28.45;13.78;;;;;;;-2.27;87.63;99090.05;1718079;83;20950;-76
2021/11/11 02:51:20;;;;;;;27.50;13.18;;;;;;;-2.28;87.70;99089.16;1719090;83;21549;-76
2021/11/11 02:53:47;;;;;;;31.17;14.35;;;;;;;-2.26;88.06;99084.02;1718100;83;21361;-76
2021/11/11 02:56:14;;;;;;;28.45;13.62;;;;;;;-2.21;87.92;99086.39;1698479;83;20985;-76
2021/11/11 02:58:41;;;;;;;29.48;13.58;;;;;;;-2.24;87.84;99081.49;1719619;83;21001;-76
2021/11/11 03:01:08;;;;;;;27.15;14.03;;;;;;;-2.23;88.06;99084.55;1708112;83;21005;-76
2021/11/11 03:03:35;;;;;;;26.25;12.78;;;;;;;-2.21;87.71;99076.43;1719419;82;21021;-76
2021/11/11 03:06:03;;;;;;;28.90;13.68;;;;;;;-2.25;87.69;99079.30;1719419;82;21436;-76
2021/11/11 03:08:31;;;;;;;22.37;12.90;;;;;;;-2.28;87.63;99074.00;1706199;83;21415;-76
2021/11/11 03:10:58;;;;;;;21.60;12.13;;;;;;;-2.32;87.54;99069.51;1718062;83;21002;-76
2021/11/11 03:13:26;;;;;;;26.75;12.75;;;;;;;-2.33;87.82;99075.53;1717507;83;21474;-76
2021/11/11 03:15:56;;;;;;;30.88;13.78;;;;;;;-2.28;87.90;99068.81;1718083;83;21112;-76
2021/11/11 03:18:23;;;;;;;24.32;12.90;;;;;;;-2.28;87.89;99063.61;1718604;83;21006;-76
2021/11/11 03:20:51;;;;;;;24.23;13.00;;;;;;;-2.29;87.82;99065.31;1714364;83;21009;-76
2021/11/11 03:23:18;;;;;;;25.30;12.25;;;;;;;-2.26;87.68;99062.84;1693053;84;22333;-76
2021/11/11 03:25:45;;;;;;;25.97;12.15;;;;;;;-2.27;87.55;99064.08;1709127;84;21055;-76
2021/11/11 03:28:12;;;;;;;24.23;11.75;;;;;;;-2.31;87.55;99064.38;1711185;83;21009;-76
2021/11/11 03:30:41;;;;;;;26.37;12.80;;;;;;;-2.32;87.49;99066.91;1713661;84;21080;-76
2021/11/11 03:33:08;;;;;;;22.60;12.95;;;;;;;-2.32;87.64;99063.02;1715062;83;21021;-76
2021/11/11 03:35:38;;;;;;;24.45;12.78;;;;;;;-2.27;87.69;99062.78;1719263;83;21498;-76
2021/11/11 03:38:08;;;;;;;23.35;12.43;;;;;;;-2.26;87.67;99061.95;1717215;83;21076;-76
2021/11/11 03:40:40;;;;;;;23.83;12.45;;;;;;;-2.30;87.15;99066.55;1718501;83;21092;-76
2021/11/11 03:43:09;;;;;;;23.50;12.53;;;;;;;-2.35;87.08;99059.89;1718128;83;21006;-77
2021/11/11 03:45:41;;;;;;;20.77;11.83;;;;;;;-2.36;87.44;99059.42;1717761;83;21411;-76
2021/11/11 03:48:08;;;;;;;18.98;11.10;;;;;;;-2.40;87.04;99053.63;1707644;83;21104;-76
2021/11/11 03:50:36;;;;;;;22.42;11.48;;;;;;;-2.43;87.18;99053.09;1715634;83;21069;-76
2021/11/11 03:53:04;;;;;;;23.60;12.05;;;;;;;-2.44;87.34;99055.23;1713474;83;21418;-76
2021/11/11 03:55:31;;;;;;;22.70;12.13;;;;;;;-2.43;87.06;99057.39;1709761;84;20981;-76
2021/11/11 03:57:59;;;;;;;21.77;10.65;;;;;;;-2.47;87.12;99057.69;1709005;84;20980;-76
2021/11/11 04:00:29;;;;;;;27.10;13.38;;;;;;;-2.45;87.32;99052.56;1709136;84;21417;-76
2021/11/11 04:02:57;;;;;;;22.30;11.10;;;;;;;-2.43;87.14;99056.09;1712862;83;21013;-76
2021/11/11 04:05:24;;;;;;;21.12;11.55;;;;;;;-2.44;87.22;99050.44;1718651;83;21426;-76
2021/11/11 04:07:52;;;;;;;19.92;10.95;;;;;;;-2.43;86.98;99045.70;1718024;83;21086;-76
2021/11/11 04:10:21;;;;;;;22.55;11.30;;;;;;;-2.52;86.63;99044.94;1713129;82;20980;-76
2021/11/11 04:12:49;;;;;;;20.02;11.78;;;;;;;-2.56;86.90;99046.94;1711586;83;21036;-76
2021/11/11 04:15:17;;;;;;;23.73;11.15;;;;;;;-2.53;86.86;99052.27;1713365;84;21001;-76
2021/11/11 04:17:44;;;;;;;24.92;12.45;;;;;;;-2.56;86.81;99051.73;1717760;83;20970;-76
2021/11/11 04:20:12;;;;;;;20.92;12.00;;;;;;;-2.60;86.67;99052.83;1717801;83;21054;-76
2021/11/11 04:22:40;;;;;;;23.77;12.63;;;;;;;-2.63;86.75;99047.09;1718114;83;21483;-77
2021/11/11 04:25:15;;;;;;;23.38;11.75;;;;;;;-2.64;86.83;99053.12;1713513;82;20976;-77
2021/11/11 04:27:46;;;;;;;24.82;12.00;;;;;;;-2.67;86.68;99046.49;1678693;84;21542;-76
2021/11/11 04:32:40;;;;;;;21.10;11.78;;;;;;;-2.72;86.87;99042.83;1703532;83;21462;-76
2021/11/11 04:35:08;;;;;;;33.60;17.62;;;;;;;-2.71;86.83;99037.70;1717919;83;21081;-76
2021/11/11 04:43:32;;;;;;;31.60;14.25;;;;;;;-2.67;87.01;99040.91;1716069;83;20996;-76
2021/11/11 05:04:23;;;;;;;;;;;;;;;-2.74;87.29;99033.68;1665235;85;21015;-76
2021/11/11 05:06:52;;;;;;;24.30;12.05;;;;;;;-2.73;87.09;99030.69;1690212;85;20121;-76
2021/11/11 05:09:19;;;;;;;24.80;11.65;;;;;;;-2.74;87.06;99041.46;1726727;82;21467;-76
2021/11/11 05:11:46;;;;;;;16.97;9.25;;;;;;;-2.76;87.17;99034.05;1727394;83;20968;-76
2021/11/11 05:14:13;;;;;;;20.00;9.58;;;;;;;-2.77;87.44;99032.28;1722095;83;20996;-76
2021/11/11 05:16:39;;;;;;;21.27;10.65;;;;;;;-2.77;87.19;99030.98;1721781;83;21001;-76
2021/11/11 05:19:06;;;;;;;19.07;9.38;;;;;;;-2.76;87.03;99030.55;1721799;83;21012;-76
2021/11/11 05:21:32;;;;;;;23.62;9.30;;;;;;;-2.81;87.00;99036.47;1721853;83;21008;-76
2021/11/11 05:23:59;;;;;;;21.33;10.48;;;;;;;-2.81;87.11;99029.08;1721844;83;21008;-76
2021/11/11 05:26:26;;;;;;;25.40;11.25;;;;;;;-2.76;87.19;99030.55;1727557;83;20953;-77
2021/11/11 05:28:55;;;;;;;24.63;11.53;;;;;;;-2.76;87.15;99030.15;1727408;83;21069;-77
2021/11/11 05:31:24;;;;;;;26.82;13.85;;;;;;;-2.73;87.14;99025.50;1726444;82;21072;-77
2021/11/11 05:33:50;;;;;;;25.10;12.23;;;;;;;-2.72;87.00;99022.97;1722928;82;21433;-77
2021/11/11 05:36:19;;;;;;;33.53;13.83;;;;;;;-2.72;87.18;99020.38;1700165;84;21051;-78
2021/11/11 05:38:45;;;;;;;28.73;12.95;;;;;;;-2.72;86.79;99024.66;1727466;82;21124;-77
2021/11/11 05:41:13;;;;;;;27.73;12.95;;;;;;;-2.72;87.18;99021.67;1727229;83;20969;-78
2021/11/11 05:43:40;;;;;;;25.45;12.15;;;;;;;-2.67;87.15;99024.03;1707566;83;21470;-78
2021/11/11 05:46:07;;;;;;;26.52;11.45;;;;;;;-2.61;87.10;99022.51;1707755;83;21069;-77
2021/11/11 05:48:34;;;;;;;29.07;13.60;;;;;;;-2.62;86.82;99023.34;1706211;83;21016;-78
2021/11/11 05:51:02;;;;;;;28.70;12.88;;;;;;;-2.65;86.68;99024.11;1724611;83;21029;-78
2021/11/11 05:53:29;;;;;;;29.87;12.98;;;;;;;-2.67;86.75;99029.62;1724806;83;20961;-77
2021/11/11 05:55:56;;;;;;;30.70;14.50;;;;;;;-2.70;86.73;99027.80;1724481;83;21044;-78
2021/11/11 05:58:23;;;;;;;24.67;13.03;;;;;;;-2.67;86.88;99028.33;1725201;83;21449;-77
2021/11/11 06:00:50;;;;;;;24.12;11.20;;;;;;;-2.64;87.33;99032.36;1724434;83;21079;-78
2021/11/11 06:03:19;;;;;;;24.30;11.45;;;;;;;-2.59;87.13;99033.42;1724639;83;20964;-78
2021/11/11 06:05:47;;;;;;;28.62;12.75;;;;;;;-2.55;87.34;99037.92;1724280;83;21422;-78
2021/11/11 06:08:16;;;;;;;27.50;12.18;;;;;;;-2.54;87.18;99038.39;1724687;83;21517;-77
2021/11/11 06:10:42;;;;;;;26.55;12.28;;;;;;;-2.48;87.13;99038.16;1724999;83;20999;-78
2021/11/11 06:13:09;;;;;;;27.20;12.10;;;;;;;-2.44;87.22;99034.86;1698574;83;20997;-77
2021/11/11 06:15:35;;;;;;;22.73;10.80;;;;;;;-2.37;87.42;99035.98;1724931;83;21088;-77
2021/11/11 06:18:02;;;;;;;24.52;11.25;;;;;;;-2.30;87.26;99034.98;1724957;83;21075;-77
2021/11/11 06:20:33;;;;;;;23.80;11.85;;;;;;;-2.28;87.15;99036.34;1724443;83;21009;-77
2021/11/11 06:23:02;;;;;;;21.52;11.48;;;;;;;-2.24;87.11;99034.75;1723078;83;21440;-77
2021/11/11 06:25:29;;;;;;;33.60;14.68;;;;;;;-2.21;87.18;99033.58;1724608;83;20965;-78
2021/11/11 06:27:58;;;;;;;21.27;11.53;;;;;;;-2.19;87.11;99038.41;1723889;83;21407;-78
2021/11/11 06:30:25;;;;;;;25.35;13.40;;;;;;;-2.13;87.49;99036.03;1724979;83;21039;-78
2021/11/11 06:32:52;;;;;;;28.73;13.62;;;;;;;-2.09;87.38;99036.62;1720154;83;20988;-78
2021/11/11 06:35:20;;;;;;;26.05;12.73;;;;;;;-2.04;87.40;99031.19;1680401;85;21073;-78
2021/11/11 06:37:47;;;;;;;25.92;14.83;;;;;;;-2.01;87.28;99035.62;1724888;82;21039;-78
2021/11/11 06:40:13;;;;;;;31.50;16.17;;;;;;;-1.99;87.31;99035.28;1725032;83;20975;-78
2021/11/11 06:42:40;;;;;;;28.42;15.72;;;;;;;-1.92;87.20;99028.17;1724844;83;21031;-78
2021/11/11 06:45:11;;;;;;;36.08;17.70;;;;;;;-1.93;87.13;99030.30;1724598;83;20977;-77
2021/11/11 06:47:36;;;;;;;34.80;17.80;;;;;;;-1.90;87.36;99026.94;1723981;83;21048;-79
2021/11/11 06:50:03;;;;;;;36.85;17.70;;;;;;;-1.82;87.19;99015.52;1725224;83;20957;-81
2021/11/11 06:52:30;;;;;;;34.20;18.75;;;;;;;-1.77;87.38;99021.77;1720586;83;21020;-81
2021/11/11 06:54:57;;;;;;;49.63;23.20;;;;;;;-1.73;87.20;99024.95;1724806;83;20992;-77
2021/11/11 06:57:23;;;;;;;50.58;24.15;;;;;;;-1.69;87.71;99028.14;1724808;83;21416;-78
2021/11/11 06:59:52;;;;;;;50.12;24.55;;;;;;;-1.65;87.41;99024.83;1723667;83;21023;-81
2021/11/11 07:02:19;;;;;;;53.30;26.93;;;;;;;-1.61;87.19;99018.02;1722422;82;21028;-84
2021/11/11 07:04:46;;;;;;;53.78;25.52;;;;;;;-1.57;87.31;99023.80;1725171;83;21030;-81
2021/11/11 07:07:13;;;;;;;61.28;30.37;;;;;;;-1.52;87.37;99023.55;1724299;82;21013;-81
2021/11/11 07:09:40;;;;;;;61.88;29.25;;;;;;;-1.45;87.46;99019.45;1725068;83;21064;-82
2021/11/11 07:12:08;;;;;;;73.00;32.55;;;;;;;-1.42;87.65;99016.94;1724611;83;20989;-81
2021/11/11 07:14:41;;;;;;;73.00;32.28;;;;;;;-1.36;88.14;99018.45;1724051;83;21016;-82
2021/11/11 07:17:07;;;;;;;77.95;33.10;;;;;;;-1.31;87.82;99012.13;1724414;83;21032;-80
2021/11/11 07:19:34;;;;;;;77.78;33.42;;;;;;;-1.29;88.12;99005.68;1724560;83;21438;-80
2021/11/11 07:22:03;;;;;;;88.78;36.50;;;;;;;-1.23;87.71;99003.28;1724529;83;21067;-80
2021/11/11 07:24:30;;;;;;;92.78;36.38;;;;;;;-1.16;87.80;99004.38;1724668;83;21103;-80
2021/11/11 07:26:59;;;;;;;87.25;38.13;;;;;;;-1.13;87.55;98997.55;1724780;83;20977;-82
2021/11/11 07:29:27;;;;;;;82.42;36.85;;;;;;;-1.01;87.45;98991.88;1724963;83;21486;-82
2021/11/11 07:31:56;;;;;;;93.92;38.30;;;;;;;-0.94;87.25;98987.77;1722753;83;21382;-80
2021/11/11 07:34:24;;;;;;;87.80;37.60;;;;;;;-0.85;87.66;98988.06;1716501;82;20988;-80
2021/11/11 07:36:54;;;;;;;72.25;32.38;;;;;;;-0.69;87.36;98984.23;1679822;85;21076;-80
2021/11/11 07:39:22;;;;;;;62.08;28.70;;;;;;;-0.54;87.74;98985.55;1667861;85;20998;-80
2021/11/11 07:41:48;;;;;;;68.90;27.60;;;;;;;-0.52;87.52;98984.27;1688414;85;21070;-80
2021/11/11 07:44:17;;;;;;;54.38;26.73;;;;;;;-0.38;87.50;98984.72;1688089;83;21066;-80
2021/11/11 07:46:43;;;;;;;58.00;27.22;;;;;;;-0.31;87.33;98981.04;1688393;84;21473;-80
2021/11/11 07:49:11;;;;;;;59.08;27.20;;;;;;;-0.18;87.02;98980.09;1688144;85;21023;-80
2021/11/11 07:51:38;;;;;;;58.08;24.98;;;;;;;-0.09;86.64;98979.50;1688197;85;21002;-80
2021/11/11 07:54:05;;;;;;;62.88;26.65;;;;;;;-0.06;85.80;98983.48;1688389;84;21029;-81
2021/11/11 07:56:35;;;;;;;65.55;28.20;;;;;;;0.00;86.51;98978.47;1688264;85;21069;-81
2021/11/11 07:59:04;;;;;;;77.47;33.63;;;;;;;0.13;85.91;98977.95;1688175;85;21068;-81
2021/11/11 08:01:30;;;;;;;78.80;30.35;;;;;;;0.03;85.37;98982.44;1686439;84;21018;-81
2021/11/11 08:03:58;;;;;;;70.87;29.10;;;;;;;-0.10;85.60;98982.91;1679939;85;21030;-81
2021/11/11 08:06:24;;;;;;;75.97;30.20;;;;;;;-0.17;85.94;98981.88;1680045;85;21013;-81
2021/11/11 08:08:51;;;;;;;66.35;27.75;;;;;;;-0.15;86.77;98974.57;1679977;85;21042;-81
2021/11/11 08:11:18;;;;;;;61.90;27.42;;;;;;;-0.15;86.92;98987.59;1686686;85;20977;-80
2021/11/11 08:13:45;;;;;;;55.88;25.45;;;;;;;-0.07;86.74;98977.80;1687873;84;21505;-80
2021/11/11 08:16:11;;;;;;;45.30;21.00;;;;;;;0.00;86.98;98983.67;1687842;84;21100;-81
2021/11/11 08:18:38;;;;;;;39.33;18.75;;;;;;;0.14;86.54;98978.84;1687729;84;21497;-81
2021/11/11 08:21:05;;;;;;;36.05;17.98;;;;;;;0.31;86.25;98969.30;1687663;85;21565;-80
2021/11/11 08:23:32;;;;;;;33.30;17.82;;;;;;;0.39;85.76;98972.59;1687623;84;20993;-81
2021/11/11 08:26:03;;;;;;;31.85;16.85;;;;;;;0.44;85.01;98974.02;1687831;84;21077;-81
2021/11/11 08:28:27;;;;;;;30.65;18.17;;;;;;;0.54;85.20;98984.70;1687336;85;21073;-81
2021/11/11 08:30:53;;;;;;;31.07;17.40;;;;;;;0.69;85.44;98981.59;1687926;85;21467;-81
2021/11/11 08:33:20;;;;;;;30.72;17.05;;;;;;;0.57;83.64;98980.44;1687515;85;21017;-81
2021/11/11 08:35:47;;;;;;;30.32;17.40;;;;;;;0.46;83.51;98973.62;1687821;84;21050;-81
2021/11/11 08:38:14;;;;;;;36.45;16.32;;;;;;;0.52;84.17;98980.33;1687922;84;20995;-80
2021/11/11 08:40:41;;;;;;;31.05;16.12;;;;;;;0.61;83.86;98974.46;1688379;85;21021;-80
2021/11/11 08:43:08;;;;;;;32.48;15.08;;;;;;;0.75;84.43;98979.16;1688248;85;21048;-81
2021/11/11 08:45:37;;;;;;;27.37;14.80;;;;;;;0.85;83.86;98983.77;1662329;85;21009;-80
2021/11/11 08:48:05;;;;;;;31.02;14.83;;;;;;;0.95;84.00;98978.79;1687864;85;21069;-80
2021/11/11 08:50:35;;;;;;;26.85;14.23;;;;;;;1.02;83.86;98980.70;1687762;85;21025;-80
2021/11/11 08:53:02;;;;;;;28.62;14.78;;;;;;;1.15;84.06;98980.16;1687846;85;21156;-81
2021/11/11 08:55:31;;;;;;;26.75;14.58;;;;;;;1.04;83.23;98983.80;1687862;85;21416;-80
2021/11/11 08:57:59;;;;;;;24.80;13.68;;;;;;;1.09;83.60;98980.42;1687883;85;21127;-81
2021/11/11 09:00:31;;;;;;;23.47;14.23;;;;;;;1.14;83.09;98985.33;1687869;85;21050;-81
2021/11/11 09:03:00;;;;;;;25.48;13.80;;;;;;;1.20;83.11;98973.72;1681834;85;21057;-81
2021/11/11 09:05:32;;;;;;;28.10;14.93;;;;;;;1.25;81.92;98975.16;1685425;85;21002;-81
2021/11/11 09:07:57;;;;;;;25.37;15.18;;;;;;;1.30;82.56;98966.56;1686867;84;21532;-81
2021/11/11 09:10:23;;;;;;;21.75;13.53;;;;;;;1.22;82.19;98963.32;1688083;85;21050;-80
2021/11/11 09:12:53;;;;;;;20.43;13.18;;;;;;;1.23;82.32;98974.22;1687962;84;21042;-80
2021/11/11 09:15:25;;;;;;;24.00;12.33;;;;;;;1.20;81.82;98973.72;1687933;84;21029;-80
2021/11/11 09:17:55;;;;;;;19.32;12.55;;;;;;;1.17;82.20;98973.23;1687777;84;21001;-80
2021/11/11 09:20:24;;;;;;;23.05;13.98;;;;;;;1.24;82.60;98972.09;1687738;85;21044;-80
2021/11/11 09:22:53;;;;;;;19.50;12.18;;;;;;;1.31;82.38;98960.93;1687911;85;21029;-80
2021/11/11 09:25:22;;;;;;;20.27;11.95;;;;;;;1.38;82.61;98965.88;1687994;85;21506;-80
2021/11/11 09:27:49;;;;;;;25.92;12.23;;;;;;;1.42;82.69;98960.75;1724706;83;21040;-80
2021/11/11 09:30:21;;;;;;;19.50;13.00;;;;;;;1.44;82.72;98960.38;1724877;83;21443;-80
2021/11/11 09:32:47;;;;;;;20.65;12.45;;;;;;;1.42;83.35;98952.05;1724803;83;20984;-80
2021/11/11 09:35:15;;;;;;;23.60;12.73;;;;;;;1.52;83.14;98952.70;1724884;83;21389;-80
2021/11/11 09:37:42;;;;;;;20.40;12.85;;;;;;;1.63;82.79;98939.89;1725068;83;20999;-80
2021/11/11 09:40:14;;;;;;;21.37;13.58;;;;;;;1.75;82.99;98940.58;1724948;83;20988;-80
2021/11/11 09:42:41;;;;;;;25.82;12.37;;;;;;;1.80;82.71;98936.33;1724338;83;21012;-81
2021/11/11 09:45:12;;;;;;;23.57;13.45;;;;;;;1.91;82.81;98940.45;1724673;83;21051;-81
2021/11/11 09:47:41;;;;;;;22.20;13.80;;;;;;;2.00;82.63;98931.94;1724792;83;21040;-80
2021/11/11 09:50:10;;;;;;;22.77;13.22;;;;;;;2.03;82.83;98925.88;1727052;83;21016;-80
2021/11/11 09:52:39;;;;;;;23.15;13.55;;;;;;;2.02;82.98;98923.69;1729161;83;20981;-80
2021/11/11 10:00:43;;;;;;;26.52;15.10;;;;;;;1.99;83.59;98911.84;1730804;83;21027;-79
2021/11/11 10:03:10;;;;;;;28.05;15.40;;;;;;;2.02;83.76;98920.17;1732017;83;21013;-80
2021/11/11 10:05:37;;;;;;;25.62;15.25;;;;;;;2.09;83.47;98919.05;1732522;83;21047;-80
2021/11/11 10:08:06;;;;;;;30.17;16.55;;;;;;;2.19;83.50;98912.66;1732514;83;21012;-80
2021/11/11 10:10:40;;;;;;;25.88;15.38;;;;;;;2.27;83.30;98908.88;1731227;83;20969;-79
2021/11/11 10:13:20;;;;;;;26.82;16.25;;;;;;;2.29;83.82;98909.80;1727020;83;21024;-79
2021/11/11 10:16:14;;;;;;;28.62;16.67;;;;;;;2.26;83.82;98909.73;1727082;83;21079;-80
2021/11/11 10:18:49;;;;;;;27.45;15.55;;;;;;;2.34;84.02;98899.00;1727110;83;21038;-80
2021/11/11 10:21:41;;;;;;;28.10;15.50;;;;;;;2.35;84.33;98897.72;1727211;83;21048;-79
2021/11/11 10:24:21;;;;;;;25.85;14.80;;;;;;;2.31;84.41;98895.90;1697058;83;21000;-79
2021/11/11 10:27:02;;;;;;;27.45;14.58;;;;;;;2.42;84.06;98888.25;1680046;85;21074;-79
2021/11/11 10:29:37;;;;;;;24.92;14.75;;;;;;;2.49;83.88;98888.80;1680150;85;20999;-79
2021/11/11 10:32:29;;;;;;;25.95;14.40;;;;;;;2.49;84.06;98880.09;1674744;85;20984;-79
2021/11/11 10:35:01;;;;;;;25.82;15.08;;;;;;;2.40;84.60;98869.45;1672956;85;21070;-79
2021/11/11 10:37:32;;;;;;;25.08;14.68;;;;;;;2.48;84.66;98869.14;1679916;85;21031;-79
2021/11/11 10:40:16;;;;;;;25.82;14.75;;;;;;;2.55;84.32;98867.09;1675312;85;20960;-80
2021/11/11 10:42:47;;;;;;;27.70;15.35;;;;;;;2.61;84.17;98858.45;1678829;84;21083;-80
2021/11/11 10:45:21;;;;;;;25.48;14.33;;;;;;;2.65;83.76;98855.03;1679860;85;21091;-80
2021/11/11 10:47:51;;;;;;;;;;;;;;;2.66;83.99;98852.00;1682630;85;20992;-79
2021/11/11 10:50:25;;;;;;;28.50;16.27;;;;;;;2.76;83.99;98852.18;1667101;85;20096;-79
2021/11/11 10:52:57;;;;;;;24.23;13.90;;;;;;;2.84;84.03;98848.37;1672006;84;21036;-79
2021/11/11 10:55:28;;;;;;;28.07;14.87;;;;;;;2.97;84.03;98849.84;1672080;85;20999;-79
2021/11/11 10:58:21;;;;;;;29.80;15.08;;;;;;;3.06;83.95;98839.95;1672067;85;21043;-79
2021/11/11 11:01:05;;;;;;;27.35;16.95;;;;;;;3.12;83.84;98836.97;1651761;86;20971;-79
2021/11/11 11:03:42;;;;;;;26.73;15.28;;;;;;;3.18;83.65;98838.80;1713688;84;21056;-79
2021/11/11 11:06:13;;;;;;;26.23;15.65;;;;;;;3.23;83.64;98827.96;1678852;85;20981;-79
2021/11/11 11:08:50;;;;;;;28.90;16.77;;;;;;;3.29;83.80;98833.27;1671385;86;21046;-79
2021/11/11 11:11:35;;;;;;;27.10;16.02;;;;;;;3.32;83.69;98828.50;1656365;85;21029;-79
2021/11/11 11:14:16;;;;;;;29.52;16.30;;;;;;;3.36;83.79;98817.66;1713397;84;20997;-79
2021/11/11 11:16:43;;;;;;;30.82;17.05;;;;;;;3.38;83.53;98822.47;1709521;83;21000;-79
2021/11/11 11:19:19;;;;;;;29.92;17.10;;;;;;;3.43;83.41;98823.41;1719643;83;21435;-79
2021/11/11 11:21:52;;;;;;;28.50;16.52;;;;;;;3.46;82.87;98826.50;1690694;84;21044;-79
2021/11/11 11:24:24;;;;;;;28.75;15.20;;;;;;;3.45;83.06;98828.26;1691059;85;21425;-79
2021/11/11 11:27:00;;;;;;;28.57;16.67;;;;;;;3.48;83.08;98819.55;1690998;85;21482;-79
2021/11/11 11:29:35;;;;;;;30.57;17.45;;;;;;;3.52;83.08;98828.77;1698460;83;21370;-79
2021/11/11 11:32:18;;;;;;;30.12;17.48;;;;;;;3.55;82.90;98830.13;1713323;84;21024;-79
2021/11/11 11:34:49;;;;;;;28.67;17.05;;;;;;;3.50;82.37;98823.95;1712899;84;21016;-79
2021/11/11 11:37:23;;;;;;;33.80;17.95;;;;;;;3.44;82.58;98819.92;1713692;84;21036;-79
2021/11/11 11:39:57;;;;;;;37.17;18.05;;;;;;;3.39;82.65;98816.37;1712569;84;20956;-79
2021/11/11 11:42:30;;;;;;;25.40;15.50;;;;;;;3.35;82.98;98814.14;1715015;83;20993;-79
2021/11/11 11:45:13;;;;;;;25.60;15.23;;;;;;;3.35;82.52;98808.01;1719688;83;21005;-79
2021/11/11 11:47:46;;;;;;;28.92;15.95;;;;;;;3.32;82.68;98810.16;1719329;82;21048;-80
2021/11/11 11:50:20;;;;;;;29.95;17.05;;;;;;;3.33;83.34;98807.13;1727963;82;20977;-80
2021/11/11 11:52:54;;;;;;;31.50;17.25;;;;;;;3.36;82.96;98809.34;1729944;83;21003;-79
2021/11/11 11:55:30;;;;;;;32.05;17.17;;;;;;;3.37;82.92;98803.23;1732350;82;20989;-79
2021/11/11 12:14:31;;;;;;;31.20;17.32;;;;;;;3.37;83.09;98794.52;1726475;83;20996;-80
2021/11/11 12:17:31;;;;;;;30.82;17.10;;;;;;;3.41;82.99;98798.48;1729319;83;20992;-80